sensor_id;sensor_type;location;lat;lon;timestamp;P1;durP1;ratioP1;P2;durP2;ratioP2
27983;SDS011;15317;50.360;8.726;2023-07-09T00:02:16;6.43;;;4.80;;
27983;SDS011;15317;50.360;8.726;2023-07-09T00:07:21;5.23;;;4.73;;
27983;SDS011;15317;50.360;8.726;2023-07-09T00:12:27;6.00;;;4.67;;
27983;SDS011;15317;50.360;8.726;2023-07-09T00:17:31;4.73;;;4.27;;
27983;SDS011;15317;50.360;8.726;2023-07-09T00:22:37;5.03;;;4.30;;
27983;SDS011;15317;50.360;8.726;2023-07-09T00:27:40;5.50;;;4.70;;
27983;SDS011;15317;50.360;8.726;2023-07-09T00:32:46;5.43;;;4.77;;
27983;SDS011;15317;50.360;8.726;2023-07-09T00:37:50;5.40;;;4.43;;
27983;SDS011;15317;50.360;8.726;2023-07-09T00:42:54;5.57;;;4.40;;
27983;SDS011;15317;50.360;8.726;2023-07-09T00:47:58;5.00;;;4.53;;
27983;SDS011;15317;50.360;8.726;2023-07-09T00:53:10;4.70;;;4.30;;
27983;SDS011;15317;50.360;8.726;2023-07-09T00:58:20;6.80;;;4.50;;
27983;SDS011;15317;50.360;8.726;2023-07-09T01:03:34;6.07;;;4.90;;
27983;SDS011;15317;50.360;8.726;2023-07-09T01:08:40;5.23;;;4.73;;
27983;SDS011;15317;50.360;8.726;2023-07-09T01:13:44;5.30;;;4.57;;
27983;SDS011;15317;50.360;8.726;2023-07-09T01:18:48;5.73;;;4.40;;
27983;SDS011;15317;50.360;8.726;2023-07-09T01:23:53;5.27;;;4.70;;
27983;SDS011;15317;50.360;8.726;2023-07-09T01:28:56;5.63;;;4.80;;
27983;SDS011;15317;50.360;8.726;2023-07-09T01:34:00;5.00;;;4.43;;
27983;SDS011;15317;50.360;8.726;2023-07-09T01:39:05;5.07;;;4.47;;
27983;SDS011;15317;50.360;8.726;2023-07-09T01:44:08;4.50;;;4.20;;
27983;SDS011;15317;50.360;8.726;2023-07-09T01:49:13;5.00;;;4.50;;
27983;SDS011;15317;50.360;8.726;2023-07-09T01:54:20;5.83;;;4.60;;
27983;SDS011;15317;50.360;8.726;2023-07-09T01:59:23;4.83;;;4.43;;
27983;SDS011;15317;50.360;8.726;2023-07-09T02:04:26;5.23;;;4.50;;
27983;SDS011;15317;50.360;8.726;2023-07-09T02:09:31;4.90;;;4.40;;
27983;SDS011;15317;50.360;8.726;2023-07-09T02:14:34;5.00;;;4.60;;
27983;SDS011;15317;50.360;8.726;2023-07-09T02:19:37;4.73;;;4.33;;
27983;SDS011;15317;50.360;8.726;2023-07-09T02:24:43;5.07;;;4.60;;
27983;SDS011;15317;50.360;8.726;2023-07-09T02:29:46;5.10;;;4.70;;
27983;SDS011;15317;50.360;8.726;2023-07-09T02:34:50;5.70;;;5.00;;
27983;SDS011;15317;50.360;8.726;2023-07-09T02:39:56;5.27;;;4.80;;
27983;SDS011;15317;50.360;8.726;2023-07-09T02:44:59;5.17;;;4.67;;
27983;SDS011;15317;50.360;8.726;2023-07-09T02:50:02;5.57;;;4.90;;
27983;SDS011;15317;50.360;8.726;2023-07-09T02:55:08;5.63;;;5.00;;
27983;SDS011;15317;50.360;8.726;2023-07-09T03:00:12;5.33;;;4.93;;
27983;SDS011;15317;50.360;8.726;2023-07-09T03:05:16;6.23;;;5.10;;
27983;SDS011;15317;50.360;8.726;2023-07-09T03:10:20;6.20;;;5.60;;
27983;SDS011;15317;50.360;8.726;2023-07-09T03:15:23;5.50;;;5.00;;
27983;SDS011;15317;50.360;8.726;2023-07-09T03:20:27;5.47;;;4.93;;
27983;SDS011;15317;50.360;8.726;2023-07-09T03:25:31;5.83;;;5.33;;
27983;SDS011;15317;50.360;8.726;2023-07-09T03:30:34;5.97;;;5.37;;
27983;SDS011;15317;50.360;8.726;2023-07-09T03:35:38;6.50;;;5.30;;
27983;SDS011;15317;50.360;8.726;2023-07-09T03:40:43;5.63;;;5.00;;
27983;SDS011;15317;50.360;8.726;2023-07-09T03:45:47;7.97;;;5.80;;
27983;SDS011;15317;50.360;8.726;2023-07-09T03:50:51;6.13;;;5.57;;
27983;SDS011;15317;50.360;8.726;2023-07-09T03:55:56;6.07;;;5.10;;
27983;SDS011;15317;50.360;8.726;2023-07-09T04:01:02;6.97;;;6.47;;
27983;SDS011;15317;50.360;8.726;2023-07-09T04:06:06;5.60;;;5.10;;
27983;SDS011;15317;50.360;8.726;2023-07-09T04:11:10;6.03;;;5.00;;
27983;SDS011;15317;50.360;8.726;2023-07-09T04:16:14;6.20;;;5.70;;
27983;SDS011;15317;50.360;8.726;2023-07-09T04:21:18;6.10;;;5.50;;
27983;SDS011;15317;50.360;8.726;2023-07-09T04:26:23;5.40;;;4.90;;
27983;SDS011;15317;50.360;8.726;2023-07-09T04:31:26;5.70;;;4.87;;
27983;SDS011;15317;50.360;8.726;2023-07-09T04:36:30;5.07;;;4.67;;
27983;SDS011;15317;50.360;8.726;2023-07-09T04:41:35;5.47;;;4.97;;
27983;SDS011;15317;50.360;8.726;2023-07-09T04:46:38;5.00;;;4.60;;
27983;SDS011;15317;50.360;8.726;2023-07-09T04:51:42;5.70;;;5.10;;
27983;SDS011;15317;50.360;8.726;2023-07-09T04:56:47;6.03;;;5.10;;
27983;SDS011;15317;50.360;8.726;2023-07-09T05:01:50;5.97;;;5.47;;
27983;SDS011;15317;50.360;8.726;2023-07-09T05:06:54;6.63;;;5.40;;
27983;SDS011;15317;50.360;8.726;2023-07-09T05:11:59;6.13;;;5.63;;
27983;SDS011;15317;50.360;8.726;2023-07-09T05:17:03;5.83;;;5.33;;
27983;SDS011;15317;50.360;8.726;2023-07-09T05:22:07;6.50;;;5.77;;
27983;SDS011;15317;50.360;8.726;2023-07-09T05:27:12;6.40;;;5.80;;
27983;SDS011;15317;50.360;8.726;2023-07-09T05:32:15;6.57;;;5.47;;
27983;SDS011;15317;50.360;8.726;2023-07-09T05:37:18;5.83;;;5.33;;
27983;SDS011;15317;50.360;8.726;2023-07-09T05:42:23;6.90;;;5.53;;
27983;SDS011;15317;50.360;8.726;2023-07-09T05:47:27;8.00;;;5.90;;
27983;SDS011;15317;50.360;8.726;2023-07-09T05:52:30;7.73;;;6.10;;
27983;SDS011;15317;50.360;8.726;2023-07-09T05:57:35;6.97;;;5.77;;
27983;SDS011;15317;50.360;8.726;2023-07-09T06:02:38;7.00;;;5.93;;
27983;SDS011;15317;50.360;8.726;2023-07-09T06:07:42;7.17;;;6.40;;
27983;SDS011;15317;50.360;8.726;2023-07-09T06:12:48;7.30;;;6.50;;
27983;SDS011;15317;50.360;8.726;2023-07-09T06:17:51;7.23;;;6.53;;
27983;SDS011;15317;50.360;8.726;2023-07-09T06:22:54;7.20;;;5.60;;
27983;SDS011;15317;50.360;8.726;2023-07-09T06:27:59;7.07;;;6.47;;
27983;SDS011;15317;50.360;8.726;2023-07-09T06:33:03;7.17;;;6.20;;
27983;SDS011;15317;50.360;8.726;2023-07-09T06:38:06;6.85;;;6.13;;
27983;SDS011;15317;50.360;8.726;2023-07-09T06:43:12;8.70;;;6.10;;
27983;SDS011;15317;50.360;8.726;2023-07-09T06:48:16;7.63;;;6.93;;
27983;SDS011;15317;50.360;8.726;2023-07-09T06:53:19;7.05;;;6.38;;
27983;SDS011;15317;50.360;8.726;2023-07-09T06:58:24;6.90;;;5.53;;
27983;SDS011;15317;50.360;8.726;2023-07-09T07:03:30;7.13;;;5.80;;
27983;SDS011;15317;50.360;8.726;2023-07-09T07:08:36;7.65;;;6.50;;
27983;SDS011;15317;50.360;8.726;2023-07-09T07:13:40;6.85;;;5.45;;
27983;SDS011;15317;50.360;8.726;2023-07-09T07:18:44;6.43;;;5.82;;
27983;SDS011;15317;50.360;8.726;2023-07-09T07:23:48;6.80;;;6.20;;
27983;SDS011;15317;50.360;8.726;2023-07-09T07:28:56;6.78;;;6.07;;
27983;SDS011;15317;50.360;8.726;2023-07-09T07:33:59;6.28;;;5.68;;
27983;SDS011;15317;50.360;8.726;2023-07-09T07:39:02;6.60;;;5.65;;
27983;SDS011;15317;50.360;8.726;2023-07-09T07:44:08;6.15;;;5.65;;
27983;SDS011;15317;50.360;8.726;2023-07-09T07:49:11;6.38;;;5.85;;
27983;SDS011;15317;50.360;8.726;2023-07-09T07:54:15;6.72;;;6.05;;
27983;SDS011;15317;50.360;8.726;2023-07-09T07:59:21;6.25;;;5.63;;
27983;SDS011;15317;50.360;8.726;2023-07-09T08:04:24;6.45;;;5.30;;
27983;SDS011;15317;50.360;8.726;2023-07-09T08:09:28;7.40;;;5.57;;
27983;SDS011;15317;50.360;8.726;2023-07-09T08:14:33;6.13;;;5.53;;
27983;SDS011;15317;50.360;8.726;2023-07-09T08:19:43;5.57;;;5.15;;
27983;SDS011;15317;50.360;8.726;2023-07-09T08:24:48;5.65;;;5.15;;
27983;SDS011;15317;50.360;8.726;2023-07-09T08:29:52;6.60;;;4.90;;
27983;SDS011;15317;50.360;8.726;2023-07-09T08:34:55;6.13;;;4.97;;
27983;SDS011;15317;50.360;8.726;2023-07-09T08:40:19;6.70;;;5.25;;
27983;SDS011;15317;50.360;8.726;2023-07-09T08:45:28;5.07;;;4.57;;
27983;SDS011;15317;50.360;8.726;2023-07-09T08:50:40;5.30;;;4.90;;
27983;SDS011;15317;50.360;8.726;2023-07-09T08:55:46;5.25;;;4.75;;
27983;SDS011;15317;50.360;8.726;2023-07-09T09:00:55;6.00;;;5.00;;
27983;SDS011;15317;50.360;8.726;2023-07-09T09:06:01;5.43;;;5.03;;
27983;SDS011;15317;50.360;8.726;2023-07-09T09:11:07;5.70;;;4.90;;
27983;SDS011;15317;50.360;8.726;2023-07-09T09:16:21;6.38;;;4.80;;
27983;SDS011;15317;50.360;8.726;2023-07-09T09:21:29;6.38;;;5.00;;
27983;SDS011;15317;50.360;8.726;2023-07-09T09:26:35;7.63;;;5.22;;
27983;SDS011;15317;50.360;8.726;2023-07-09T09:31:44;5.80;;;4.80;;
27983;SDS011;15317;50.360;8.726;2023-07-09T09:36:51;6.13;;;4.72;;
27983;SDS011;15317;50.360;8.726;2023-07-09T09:41:56;6.75;;;5.03;;
27983;SDS011;15317;50.360;8.726;2023-07-09T09:47:03;6.22;;;5.10;;
27983;SDS011;15317;50.360;8.726;2023-07-09T09:52:10;4.90;;;4.43;;
27983;SDS011;15317;50.360;8.726;2023-07-09T09:57:16;5.38;;;4.70;;
27983;SDS011;15317;50.360;8.726;2023-07-09T10:02:24;6.63;;;5.05;;
27983;SDS011;15317;50.360;8.726;2023-07-09T10:07:33;5.85;;;5.13;;
27983;SDS011;15317;50.360;8.726;2023-07-09T10:12:42;5.63;;;5.10;;
27983;SDS011;15317;50.360;8.726;2023-07-09T10:17:53;5.38;;;4.93;;
27983;SDS011;15317;50.360;8.726;2023-07-09T10:23:02;5.07;;;4.47;;
27983;SDS011;15317;50.360;8.726;2023-07-09T10:28:25;6.03;;;5.32;;
27983;SDS011;15317;50.360;8.726;2023-07-09T10:33:55;5.60;;;5.00;;
27983;SDS011;15317;50.360;8.726;2023-07-09T10:39:05;5.60;;;5.10;;
27983;SDS011;15317;50.360;8.726;2023-07-09T10:44:14;5.53;;;4.75;;
27983;SDS011;15317;50.360;8.726;2023-07-09T10:49:24;6.95;;;5.18;;
27983;SDS011;15317;50.360;8.726;2023-07-09T10:54:35;7.55;;;5.10;;
27983;SDS011;15317;50.360;8.726;2023-07-09T10:59:44;5.72;;;5.22;;
27983;SDS011;15317;50.360;8.726;2023-07-09T11:04:54;4.40;;;4.00;;
27983;SDS011;15317;50.360;8.726;2023-07-09T11:10:00;4.88;;;4.47;;
27983;SDS011;15317;50.360;8.726;2023-07-09T11:15:06;4.57;;;4.28;;
27983;SDS011;15317;50.360;8.726;2023-07-09T11:20:19;5.30;;;3.97;;
27983;SDS011;15317;50.360;8.726;2023-07-09T11:25:27;4.45;;;4.05;;
27983;SDS011;15317;50.360;8.726;2023-07-09T11:30:32;4.47;;;4.10;;
27983;SDS011;15317;50.360;8.726;2023-07-09T11:35:45;5.28;;;4.70;;
27983;SDS011;15317;50.360;8.726;2023-07-09T11:40:51;4.95;;;4.30;;
27983;SDS011;15317;50.360;8.726;2023-07-09T11:45:56;7.13;;;4.18;;
27983;SDS011;15317;50.360;8.726;2023-07-09T11:51:08;4.57;;;4.18;;
27983;SDS011;15317;50.360;8.726;2023-07-09T11:56:18;8.25;;;4.93;;
27983;SDS011;15317;50.360;8.726;2023-07-09T12:01:22;4.50;;;4.05;;
27983;SDS011;15317;50.360;8.726;2023-07-09T12:06:31;5.05;;;4.38;;
27983;SDS011;15317;50.360;8.726;2023-07-09T12:11:35;4.50;;;3.88;;
27983;SDS011;15317;50.360;8.726;2023-07-09T12:16:39;4.40;;;4.00;;
27983;SDS011;15317;50.360;8.726;2023-07-09T12:21:49;4.50;;;4.00;;
27983;SDS011;15317;50.360;8.726;2023-07-09T12:26:56;10.13;;;3.95;;
27983;SDS011;15317;50.360;8.726;2023-07-09T12:32:02;4.25;;;3.83;;
27983;SDS011;15317;50.360;8.726;2023-07-09T12:37:14;4.82;;;4.00;;
27983;SDS011;15317;50.360;8.726;2023-07-09T12:42:18;4.40;;;4.00;;
27983;SDS011;15317;50.360;8.726;2023-07-09T12:47:26;5.55;;;4.40;;
27983;SDS011;15317;50.360;8.726;2023-07-09T12:52:30;4.07;;;3.78;;
27983;SDS011;15317;50.360;8.726;2023-07-09T12:57:37;4.85;;;4.35;;
27983;SDS011;15317;50.360;8.726;2023-07-09T13:02:40;4.35;;;3.95;;
27983;SDS011;15317;50.360;8.726;2023-07-09T13:07:48;4.90;;;4.28;;
27983;SDS011;15317;50.360;8.726;2023-07-09T13:12:54;6.25;;;4.15;;
27983;SDS011;15317;50.360;8.726;2023-07-09T13:17:59;5.10;;;4.25;;
27983;SDS011;15317;50.360;8.726;2023-07-09T13:23:09;5.35;;;4.57;;
27983;SDS011;15317;50.360;8.726;2023-07-09T13:28:14;8.65;;;4.72;;
27983;SDS011;15317;50.360;8.726;2023-07-09T13:33:21;5.35;;;4.85;;
27983;SDS011;15317;50.360;8.726;2023-07-09T13:38:25;4.55;;;4.15;;
27983;SDS011;15317;50.360;8.726;2023-07-09T13:43:29;4.57;;;4.18;;
27983;SDS011;15317;50.360;8.726;2023-07-09T13:48:34;10.27;;;4.93;;
27983;SDS011;15317;50.360;8.726;2023-07-09T13:53:40;6.35;;;4.55;;
27983;SDS011;15317;50.360;8.726;2023-07-09T13:58:43;8.25;;;4.47;;
27983;SDS011;15317;50.360;8.726;2023-07-09T14:03:47;6.85;;;4.40;;
27983;SDS011;15317;50.360;8.726;2023-07-09T14:08:51;5.72;;;4.25;;
27983;SDS011;15317;50.360;8.726;2023-07-09T14:13:55;5.90;;;4.70;;
27983;SDS011;15317;50.360;8.726;2023-07-09T14:18:58;7.97;;;5.05;;
27983;SDS011;15317;50.360;8.726;2023-07-09T14:24:07;6.00;;;4.60;;
27983;SDS011;15317;50.360;8.726;2023-07-09T14:29:24;7.32;;;4.95;;
27983;SDS011;15317;50.360;8.726;2023-07-09T14:34:28;5.82;;;4.78;;
27983;SDS011;15317;50.360;8.726;2023-07-09T14:39:36;6.65;;;4.78;;
27983;SDS011;15317;50.360;8.726;2023-07-09T14:44:39;6.15;;;4.95;;
27983;SDS011;15317;50.360;8.726;2023-07-09T14:49:43;5.57;;;4.90;;
27983;SDS011;15317;50.360;8.726;2023-07-09T15:06:17;5.63;;;4.68;;
27983;SDS011;15317;50.360;8.726;2023-07-09T15:11:20;5.25;;;4.57;;
27983;SDS011;15317;50.360;8.726;2023-07-09T15:16:24;7.55;;;5.13;;
27983;SDS011;15317;50.360;8.726;2023-07-09T15:21:28;6.18;;;4.95;;
27983;SDS011;15317;50.360;8.726;2023-07-09T15:26:32;6.72;;;4.60;;
27983;SDS011;15317;50.360;8.726;2023-07-09T15:31:36;6.47;;;4.97;;
27983;SDS011;15317;50.360;8.726;2023-07-09T15:36:40;6.15;;;4.70;;
27983;SDS011;15317;50.360;8.726;2023-07-09T15:41:46;6.82;;;4.75;;
27983;SDS011;15317;50.360;8.726;2023-07-09T15:46:52;5.07;;;4.60;;
27983;SDS011;15317;50.360;8.726;2023-07-09T15:51:58;6.05;;;4.78;;
27983;SDS011;15317;50.360;8.726;2023-07-09T15:57:01;8.90;;;4.70;;
27983;SDS011;15317;50.360;8.726;2023-07-09T16:02:10;6.13;;;4.68;;
27983;SDS011;15317;50.360;8.726;2023-07-09T16:07:15;6.28;;;4.90;;
27983;SDS011;15317;50.360;8.726;2023-07-09T16:12:19;5.82;;;4.70;;
27983;SDS011;15317;50.360;8.726;2023-07-09T16:17:23;5.22;;;4.47;;
27983;SDS011;15317;50.360;8.726;2023-07-09T16:22:26;5.85;;;4.85;;
27983;SDS011;15317;50.360;8.726;2023-07-09T16:27:29;5.72;;;4.90;;
27983;SDS011;15317;50.360;8.726;2023-07-09T16:32:34;6.38;;;4.78;;
27983;SDS011;15317;50.360;8.726;2023-07-09T16:37:37;7.45;;;5.00;;
27983;SDS011;15317;50.360;8.726;2023-07-09T16:42:41;5.95;;;4.53;;
27983;SDS011;15317;50.360;8.726;2023-07-09T16:47:46;8.40;;;5.45;;
27983;SDS011;15317;50.360;8.726;2023-07-09T16:52:50;6.53;;;4.97;;
27983;SDS011;15317;50.360;8.726;2023-07-09T16:57:55;25.13;;;5.25;;
27983;SDS011;15317;50.360;8.726;2023-07-09T17:03:03;13.50;;;4.88;;
27983;SDS011;15317;50.360;8.726;2023-07-09T17:08:08;15.60;;;4.82;;
27983;SDS011;15317;50.360;8.726;2023-07-09T17:13:14;7.85;;;4.43;;
27983;SDS011;15317;50.360;8.726;2023-07-09T17:18:24;10.25;;;4.57;;
27983;SDS011;15317;50.360;8.726;2023-07-09T17:23:30;6.65;;;4.03;;
27983;SDS011;15317;50.360;8.726;2023-07-09T17:28:34;6.05;;;3.83;;
27983;SDS011;15317;50.360;8.726;2023-07-09T17:33:39;6.05;;;3.80;;
27983;SDS011;15317;50.360;8.726;2023-07-09T17:38:42;7.28;;;3.70;;
27983;SDS011;15317;50.360;8.726;2023-07-09T17:43:45;5.38;;;3.75;;
27983;SDS011;15317;50.360;8.726;2023-07-09T17:48:49;5.85;;;3.42;;
27983;SDS011;15317;50.360;8.726;2023-07-09T17:53:52;5.97;;;3.60;;
27983;SDS011;15317;50.360;8.726;2023-07-09T17:58:56;9.40;;;3.88;;
27983;SDS011;15317;50.360;8.726;2023-07-09T18:04:00;3.80;;;3.50;;
27983;SDS011;15317;50.360;8.726;2023-07-09T18:09:03;4.88;;;3.88;;
27983;SDS011;15317;50.360;8.726;2023-07-09T18:14:09;8.05;;;4.90;;
27983;SDS011;15317;50.360;8.726;2023-07-09T18:19:26;7.13;;;4.32;;
27983;SDS011;15317;50.360;8.726;2023-07-09T18:24:30;4.93;;;3.97;;
27983;SDS011;15317;50.360;8.726;2023-07-09T18:29:34;4.28;;;3.85;;
27983;SDS011;15317;50.360;8.726;2023-07-09T18:34:40;4.40;;;4.00;;
27983;SDS011;15317;50.360;8.726;2023-07-09T18:39:43;6.68;;;4.97;;
27983;SDS011;15317;50.360;8.726;2023-07-09T18:44:46;5.80;;;5.30;;
27983;SDS011;15317;50.360;8.726;2023-07-09T18:49:51;7.15;;;4.57;;
27983;SDS011;15317;50.360;8.726;2023-07-09T18:54:55;7.82;;;7.07;;
27983;SDS011;15317;50.360;8.726;2023-07-09T18:59:58;7.45;;;6.70;;
27983;SDS011;15317;50.360;8.726;2023-07-09T19:05:07;6.90;;;6.30;;
27983;SDS011;15317;50.360;8.726;2023-07-09T19:10:16;6.43;;;5.82;;
27983;SDS011;15317;50.360;8.726;2023-07-09T19:15:21;5.95;;;5.28;;
27983;SDS011;15317;50.360;8.726;2023-07-09T19:20:26;5.90;;;5.40;;
27983;SDS011;15317;50.360;8.726;2023-07-09T19:25:29;6.55;;;5.57;;
27983;SDS011;15317;50.360;8.726;2023-07-09T19:30:32;5.85;;;5.03;;
27983;SDS011;15317;50.360;8.726;2023-07-09T19:35:37;5.38;;;4.88;;
27983;SDS011;15317;50.360;8.726;2023-07-09T19:40:40;5.32;;;4.82;;
27983;SDS011;15317;50.360;8.726;2023-07-09T19:45:44;7.45;;;5.35;;
27983;SDS011;15317;50.360;8.726;2023-07-09T19:50:51;5.70;;;5.15;;
27983;SDS011;15317;50.360;8.726;2023-07-09T19:55:55;7.97;;;5.20;;
27983;SDS011;15317;50.360;8.726;2023-07-09T20:00:58;5.72;;;5.15;;
27983;SDS011;15317;50.360;8.726;2023-07-09T20:06:03;5.88;;;5.03;;
27983;SDS011;15317;50.360;8.726;2023-07-09T20:11:09;6.50;;;4.82;;
27983;SDS011;15317;50.360;8.726;2023-07-09T20:16:19;6.15;;;5.00;;
27983;SDS011;15317;50.360;8.726;2023-07-09T20:21:27;5.78;;;4.95;;
27983;SDS011;15317;50.360;8.726;2023-07-09T20:26:30;5.85;;;5.13;;
27983;SDS011;15317;50.360;8.726;2023-07-09T20:31:33;5.45;;;4.95;;
27983;SDS011;15317;50.360;8.726;2023-07-09T20:36:37;5.47;;;4.97;;
27983;SDS011;15317;50.360;8.726;2023-07-09T20:41:41;6.57;;;5.03;;
27983;SDS011;15317;50.360;8.726;2023-07-09T20:46:46;5.75;;;5.20;;
27983;SDS011;15317;50.360;8.726;2023-07-09T20:51:51;7.00;;;5.63;;
27983;SDS011;15317;50.360;8.726;2023-07-09T20:56:58;7.03;;;6.28;;
27983;SDS011;15317;50.360;8.726;2023-07-09T21:02:07;7.55;;;6.97;;
27983;SDS011;15317;50.360;8.726;2023-07-09T21:07:21;7.75;;;7.05;;
27983;SDS011;15317;50.360;8.726;2023-07-09T21:12:25;6.88;;;6.35;;
27983;SDS011;15317;50.360;8.726;2023-07-09T21:17:29;6.82;;;6.22;;
27983;SDS011;15317;50.360;8.726;2023-07-09T21:22:34;6.30;;;5.78;;
27983;SDS011;15317;50.360;8.726;2023-07-09T21:27:37;6.45;;;5.50;;
27983;SDS011;15317;50.360;8.726;2023-07-09T21:32:40;5.72;;;5.13;;
27983;SDS011;15317;50.360;8.726;2023-07-09T21:37:45;5.78;;;5.22;;
27983;SDS011;15317;50.360;8.726;2023-07-09T21:42:49;7.28;;;5.30;;
27983;SDS011;15317;50.360;8.726;2023-07-09T21:47:53;6.43;;;5.13;;
27983;SDS011;15317;50.360;8.726;2023-07-09T21:52:58;5.45;;;4.82;;
27983;SDS011;15317;50.360;8.726;2023-07-09T21:58:01;5.97;;;5.30;;
27983;SDS011;15317;50.360;8.726;2023-07-09T22:03:04;5.97;;;5.47;;
27983;SDS011;15317;50.360;8.726;2023-07-09T22:08:12;5.53;;;5.03;;
27983;SDS011;15317;50.360;8.726;2023-07-09T22:13:18;8.93;;;5.45;;
27983;SDS011;15317;50.360;8.726;2023-07-09T22:18:21;6.03;;;5.32;;
27983;SDS011;15317;50.360;8.726;2023-07-09T22:23:26;5.95;;;5.45;;
27983;SDS011;15317;50.360;8.726;2023-07-09T22:28:30;5.90;;;5.40;;
27983;SDS011;15317;50.360;8.726;2023-07-09T22:33:33;6.70;;;6.15;;
27983;SDS011;15317;50.360;8.726;2023-07-09T22:38:38;6.30;;;5.80;;
27983;SDS011;15317;50.360;8.726;2023-07-09T22:43:41;7.40;;;6.22;;
27983;SDS011;15317;50.360;8.726;2023-07-09T22:48:44;7.03;;;6.32;;
27983;SDS011;15317;50.360;8.726;2023-07-09T22:53:49;6.53;;;5.93;;
27983;SDS011;15317;50.360;8.726;2023-07-09T22:58:52;6.45;;;5.72;;
27983;SDS011;15317;50.360;8.726;2023-07-09T23:03:55;6.13;;;5.68;;
27983;SDS011;15317;50.360;8.726;2023-07-09T23:09:01;6.25;;;5.65;;
27983;SDS011;15317;50.360;8.726;2023-07-09T23:14:05;7.32;;;5.70;;
27983;SDS011;15317;50.360;8.726;2023-07-09T23:19:16;5.72;;;5.22;;
27983;SDS011;15317;50.360;8.726;2023-07-09T23:24:23;5.93;;;5.32;;
27983;SDS011;15317;50.360;8.726;2023-07-09T23:29:26;6.18;;;5.28;;
27983;SDS011;15317;50.360;8.726;2023-07-09T23:34:29;5.63;;;5.13;;
27983;SDS011;15317;50.360;8.726;2023-07-09T23:39:34;6.07;;;5.47;;
27983;SDS011;15317;50.360;8.726;2023-07-09T23:44:37;5.85;;;5.32;;
27983;SDS011;15317;50.360;8.726;2023-07-09T23:49:42;5.80;;;5.20;;
27983;SDS011;15317;50.360;8.726;2023-07-09T23:54:46;5.55;;;5.05;;
27983;SDS011;15317;50.360;8.726;2023-07-09T23:59:50;6.60;;;5.22;;
